sensor_id;sensor_type;location;lat;lon;timestamp;temperature;humidity
4759;DHT22;2393;50.560;12.636;2023-05-07T00:01:27;9.20;99.90
4759;DHT22;2393;50.560;12.636;2023-05-07T00:03:55;9.20;99.90
4759;DHT22;2393;50.560;12.636;2023-05-07T00:06:23;9.10;99.90
4759;DHT22;2393;50.560;12.636;2023-05-07T00:08:53;9.10;99.90
4759;DHT22;2393;50.560;12.636;2023-05-07T00:11:21;9.10;99.90
4759;DHT22;2393;50.560;12.636;2023-05-07T00:13:50;9.10;99.90
4759;DHT22;2393;50.560;12.636;2023-05-07T00:16:18;9.00;99.90
4759;DHT22;2393;50.560;12.636;2023-05-07T00:18:47;9.00;99.90
4759;DHT22;2393;50.560;12.636;2023-05-07T00:21:15;9.00;99.90
4759;DHT22;2393;50.560;12.636;2023-05-07T00:23:43;9.00;99.90
4759;DHT22;2393;50.560;12.636;2023-05-07T00:26:11;9.00;99.90
4759;DHT22;2393;50.560;12.636;2023-05-07T00:28:47;9.00;99.90
4759;DHT22;2393;50.560;12.636;2023-05-07T00:31:17;9.00;99.90
4759;DHT22;2393;50.560;12.636;2023-05-07T00:33:45;9.10;99.90
4759;DHT22;2393;50.560;12.636;2023-05-07T00:36:13;9.10;99.90
4759;DHT22;2393;50.560;12.636;2023-05-07T00:38:41;9.10;99.90
4759;DHT22;2393;50.560;12.636;2023-05-07T00:41:09;9.10;99.90
4759;DHT22;2393;50.560;12.636;2023-05-07T00:43:37;9.10;99.90
4759;DHT22;2393;50.560;12.636;2023-05-07T00:46:05;9.10;99.90
4759;DHT22;2393;50.560;12.636;2023-05-07T00:48:35;9.10;99.90
4759;DHT22;2393;50.560;12.636;2023-05-07T00:51:03;9.10;99.90
4759;DHT22;2393;50.560;12.636;2023-05-07T00:53:31;9.00;99.90
4759;DHT22;2393;50.560;12.636;2023-05-07T00:55:59;9.00;99.90
4759;DHT22;2393;50.560;12.636;2023-05-07T00:58:28;9.00;99.90
4759;DHT22;2393;50.560;12.636;2023-05-07T01:00:56;8.90;99.90
4759;DHT22;2393;50.560;12.636;2023-05-07T01:03:24;9.00;99.90
4759;DHT22;2393;50.560;12.636;2023-05-07T01:05:55;8.90;99.90
4759;DHT22;2393;50.560;12.636;2023-05-07T01:08:25;8.90;99.90
4759;DHT22;2393;50.560;12.636;2023-05-07T01:10:55;8.80;99.90
4759;DHT22;2393;50.560;12.636;2023-05-07T01:13:24;8.80;99.90
4759;DHT22;2393;50.560;12.636;2023-05-07T01:15:52;8.90;99.90
4759;DHT22;2393;50.560;12.636;2023-05-07T01:18:20;8.90;99.90
4759;DHT22;2393;50.560;12.636;2023-05-07T01:20:49;8.90;99.90
4759;DHT22;2393;50.560;12.636;2023-05-07T01:23:18;9.00;99.90
4759;DHT22;2393;50.560;12.636;2023-05-07T01:25:51;9.00;99.90
4759;DHT22;2393;50.560;12.636;2023-05-07T01:28:21;9.10;99.90
4759;DHT22;2393;50.560;12.636;2023-05-07T01:30:52;9.20;99.90
4759;DHT22;2393;50.560;12.636;2023-05-07T01:33:23;9.20;99.90
4759;DHT22;2393;50.560;12.636;2023-05-07T01:35:53;9.20;99.90
4759;DHT22;2393;50.560;12.636;2023-05-07T01:38:23;9.20;99.90
4759;DHT22;2393;50.560;12.636;2023-05-07T01:40:51;9.30;99.90
4759;DHT22;2393;50.560;12.636;2023-05-07T01:43:20;9.30;99.90
4759;DHT22;2393;50.560;12.636;2023-05-07T01:45:49;9.40;99.90
4759;DHT22;2393;50.560;12.636;2023-05-07T01:48:17;9.40;99.90
4759;DHT22;2393;50.560;12.636;2023-05-07T01:50:46;9.40;99.90
4759;DHT22;2393;50.560;12.636;2023-05-07T01:53:15;9.40;99.90
4759;DHT22;2393;50.560;12.636;2023-05-07T01:55:44;9.30;99.90
4759;DHT22;2393;50.560;12.636;2023-05-07T01:58:12;9.30;99.90
4759;DHT22;2393;50.560;12.636;2023-05-07T02:00:40;9.30;99.90
4759;DHT22;2393;50.560;12.636;2023-05-07T02:03:08;9.40;99.90
4759;DHT22;2393;50.560;12.636;2023-05-07T02:05:53;9.30;99.90
4759;DHT22;2393;50.560;12.636;2023-05-07T02:08:28;9.30;99.90
4759;DHT22;2393;50.560;12.636;2023-05-07T02:10:58;9.30;99.90
4759;DHT22;2393;50.560;12.636;2023-05-07T02:13:29;9.40;99.90
4759;DHT22;2393;50.560;12.636;2023-05-07T02:15:57;9.40;99.90
4759;DHT22;2393;50.560;12.636;2023-05-07T02:18:30;9.30;99.90
4759;DHT22;2393;50.560;12.636;2023-05-07T02:20:58;9.30;99.90
4759;DHT22;2393;50.560;12.636;2023-05-07T02:23:26;9.30;99.90
4759;DHT22;2393;50.560;12.636;2023-05-07T02:25:54;9.30;99.90
4759;DHT22;2393;50.560;12.636;2023-05-07T02:28:23;9.30;99.90
4759;DHT22;2393;50.560;12.636;2023-05-07T02:31:01;9.30;99.90
4759;DHT22;2393;50.560;12.636;2023-05-07T02:33:29;9.30;99.90
4759;DHT22;2393;50.560;12.636;2023-05-07T02:36:05;9.30;99.90
4759;DHT22;2393;50.560;12.636;2023-05-07T02:38:35;9.30;99.90
4759;DHT22;2393;50.560;12.636;2023-05-07T02:41:04;9.30;99.90
4759;DHT22;2393;50.560;12.636;2023-05-07T02:43:33;9.30;99.90
4759;DHT22;2393;50.560;12.636;2023-05-07T02:46:02;9.30;99.90
4759;DHT22;2393;50.560;12.636;2023-05-07T02:48:32;9.30;99.90
4759;DHT22;2393;50.560;12.636;2023-05-07T02:51:01;9.30;99.90
4759;DHT22;2393;50.560;12.636;2023-05-07T02:53:29;9.30;99.90
4759;DHT22;2393;50.560;12.636;2023-05-07T02:55:58;9.30;99.90
4759;DHT22;2393;50.560;12.636;2023-05-07T02:58:27;9.40;99.90
4759;DHT22;2393;50.560;12.636;2023-05-07T03:00:57;9.30;99.90
4759;DHT22;2393;50.560;12.636;2023-05-07T03:03:37;9.30;99.90
4759;DHT22;2393;50.560;12.636;2023-05-07T03:06:05;9.40;99.90
4759;DHT22;2393;50.560;12.636;2023-05-07T03:08:34;9.40;99.90
4759;DHT22;2393;50.560;12.636;2023-05-07T03:11:03;9.40;99.90
4759;DHT22;2393;50.560;12.636;2023-05-07T03:13:31;9.40;99.90
4759;DHT22;2393;50.560;12.636;2023-05-07T03:16:08;9.40;99.90
4759;DHT22;2393;50.560;12.636;2023-05-07T03:18:36;9.40;99.90
4759;DHT22;2393;50.560;12.636;2023-05-07T03:21:04;9.50;99.90
4759;DHT22;2393;50.560;12.636;2023-05-07T03:23:33;9.40;99.90
4759;DHT22;2393;50.560;12.636;2023-05-07T03:26:01;9.40;99.90
4759;DHT22;2393;50.560;12.636;2023-05-07T03:28:29;9.40;99.90
4759;DHT22;2393;50.560;12.636;2023-05-07T03:31:03;9.40;99.90
4759;DHT22;2393;50.560;12.636;2023-05-07T03:33:33;9.50;99.90
4759;DHT22;2393;50.560;12.636;2023-05-07T03:36:01;9.50;99.90
4759;DHT22;2393;50.560;12.636;2023-05-07T03:38:29;9.50;99.90
4759;DHT22;2393;50.560;12.636;2023-05-07T03:40:57;9.50;99.90
4759;DHT22;2393;50.560;12.636;2023-05-07T03:43:26;9.50;99.90
4759;DHT22;2393;50.560;12.636;2023-05-07T03:46:02;9.40;99.90
4759;DHT22;2393;50.560;12.636;2023-05-07T03:48:30;9.40;99.90
4759;DHT22;2393;50.560;12.636;2023-05-07T03:50:59;9.30;99.90
4759;DHT22;2393;50.560;12.636;2023-05-07T03:53:31;9.30;99.90
4759;DHT22;2393;50.560;12.636;2023-05-07T03:55:59;9.40;99.90
4759;DHT22;2393;50.560;12.636;2023-05-07T03:58:30;9.50;99.90
4759;DHT22;2393;50.560;12.636;2023-05-07T04:01:05;9.50;99.90
4759;DHT22;2393;50.560;12.636;2023-05-07T04:03:34;9.50;99.90
4759;DHT22;2393;50.560;12.636;2023-05-07T04:06:03;9.50;99.90
4759;DHT22;2393;50.560;12.636;2023-05-07T04:08:33;9.50;99.90
4759;DHT22;2393;50.560;12.636;2023-05-07T04:11:02;9.50;99.90
4759;DHT22;2393;50.560;12.636;2023-05-07T04:13:32;9.40;99.90
4759;DHT22;2393;50.560;12.636;2023-05-07T04:16:04;9.40;99.90
4759;DHT22;2393;50.560;12.636;2023-05-07T04:18:35;9.40;99.90
4759;DHT22;2393;50.560;12.636;2023-05-07T04:21:03;9.30;99.90
4759;DHT22;2393;50.560;12.636;2023-05-07T04:23:34;9.30;99.90
4759;DHT22;2393;50.560;12.636;2023-05-07T04:26:06;9.30;99.90
4759;DHT22;2393;50.560;12.636;2023-05-07T04:28:38;9.20;99.90
4759;DHT22;2393;50.560;12.636;2023-05-07T04:31:10;9.10;99.90
4759;DHT22;2393;50.560;12.636;2023-05-07T04:33:39;9.20;99.90
4759;DHT22;2393;50.560;12.636;2023-05-07T04:36:10;9.20;99.90
4759;DHT22;2393;50.560;12.636;2023-05-07T04:38:46;9.10;99.90
4759;DHT22;2393;50.560;12.636;2023-05-07T04:41:16;9.10;99.90
4759;DHT22;2393;50.560;12.636;2023-05-07T04:43:44;9.20;99.90
4759;DHT22;2393;50.560;12.636;2023-05-07T04:46:15;9.20;99.90
4759;DHT22;2393;50.560;12.636;2023-05-07T04:48:44;9.10;99.90
4759;DHT22;2393;50.560;12.636;2023-05-07T04:51:12;9.10;99.90
4759;DHT22;2393;50.560;12.636;2023-05-07T04:53:40;9.20;99.90
4759;DHT22;2393;50.560;12.636;2023-05-07T04:56:09;9.30;99.90
4759;DHT22;2393;50.560;12.636;2023-05-07T04:58:41;9.40;99.90
4759;DHT22;2393;50.560;12.636;2023-05-07T05:01:09;9.40;99.90
4759;DHT22;2393;50.560;12.636;2023-05-07T05:03:39;9.50;99.90
4759;DHT22;2393;50.560;12.636;2023-05-07T05:06:08;9.60;99.90
4759;DHT22;2393;50.560;12.636;2023-05-07T05:08:36;9.60;99.90
4759;DHT22;2393;50.560;12.636;2023-05-07T05:11:04;9.70;99.90
4759;DHT22;2393;50.560;12.636;2023-05-07T05:13:35;9.60;99.90
4759;DHT22;2393;50.560;12.636;2023-05-07T05:16:10;9.70;99.90
4759;DHT22;2393;50.560;12.636;2023-05-07T05:18:40;9.70;99.90
4759;DHT22;2393;50.560;12.636;2023-05-07T05:21:10;9.70;99.90
4759;DHT22;2393;50.560;12.636;2023-05-07T05:23:40;9.70;99.90
4759;DHT22;2393;50.560;12.636;2023-05-07T05:26:08;9.80;99.90
4759;DHT22;2393;50.560;12.636;2023-05-07T05:28:36;9.80;99.90
4759;DHT22;2393;50.560;12.636;2023-05-07T05:31:05;9.90;99.90
4759;DHT22;2393;50.560;12.636;2023-05-07T05:33:35;10.00;99.90
4759;DHT22;2393;50.560;12.636;2023-05-07T05:36:07;10.00;99.90
4759;DHT22;2393;50.560;12.636;2023-05-07T05:38:37;9.90;99.90
4759;DHT22;2393;50.560;12.636;2023-05-07T05:41:06;9.90;99.90
4759;DHT22;2393;50.560;12.636;2023-05-07T05:43:34;9.90;99.90
4759;DHT22;2393;50.560;12.636;2023-05-07T05:46:02;9.90;99.90
4759;DHT22;2393;50.560;12.636;2023-05-07T05:48:31;9.90;99.90
4759;DHT22;2393;50.560;12.636;2023-05-07T05:51:02;9.90;99.90
4759;DHT22;2393;50.560;12.636;2023-05-07T05:53:32;10.00;99.90
4759;DHT22;2393;50.560;12.636;2023-05-07T05:59:23;10.30;99.90
4759;DHT22;2393;50.560;12.636;2023-05-07T06:01:52;10.30;99.90
4759;DHT22;2393;50.560;12.636;2023-05-07T06:04:50;10.30;99.90
4759;DHT22;2393;50.560;12.636;2023-05-07T06:07:21;10.50;99.90
4759;DHT22;2393;50.560;12.636;2023-05-07T06:09:50;10.60;99.90
4759;DHT22;2393;50.560;12.636;2023-05-07T06:12:20;10.60;99.90
4759;DHT22;2393;50.560;12.636;2023-05-07T06:14:48;10.70;99.90
4759;DHT22;2393;50.560;12.636;2023-05-07T06:17:17;10.80;99.90
4759;DHT22;2393;50.560;12.636;2023-05-07T06:19:49;10.80;99.90
4759;DHT22;2393;50.560;12.636;2023-05-07T06:22:19;10.80;99.90
4759;DHT22;2393;50.560;12.636;2023-05-07T06:24:47;10.80;99.90
4759;DHT22;2393;50.560;12.636;2023-05-07T06:27:16;10.80;99.90
4759;DHT22;2393;50.560;12.636;2023-05-07T06:29:45;10.80;99.90
4759;DHT22;2393;50.560;12.636;2023-05-07T06:32:15;11.00;99.90
4759;DHT22;2393;50.560;12.636;2023-05-07T06:34:44;11.20;99.90
4759;DHT22;2393;50.560;12.636;2023-05-07T06:37:14;11.50;99.90
4759;DHT22;2393;50.560;12.636;2023-05-07T06:39:51;11.50;99.90
4759;DHT22;2393;50.560;12.636;2023-05-07T06:42:20;11.60;99.90
4759;DHT22;2393;50.560;12.636;2023-05-07T06:44:49;11.60;99.90
4759;DHT22;2393;50.560;12.636;2023-05-07T06:47:18;11.80;99.90
4759;DHT22;2393;50.560;12.636;2023-05-07T06:49:50;12.00;99.90
4759;DHT22;2393;50.560;12.636;2023-05-07T06:52:21;12.10;99.90
4759;DHT22;2393;50.560;12.636;2023-05-07T06:54:50;12.30;99.90
4759;DHT22;2393;50.560;12.636;2023-05-07T06:57:22;12.20;99.90
4759;DHT22;2393;50.560;12.636;2023-05-07T06:59:49;12.40;99.90
4759;DHT22;2393;50.560;12.636;2023-05-07T07:02:18;12.40;99.90
4759;DHT22;2393;50.560;12.636;2023-05-07T07:04:48;12.60;99.90
4759;DHT22;2393;50.560;12.636;2023-05-07T07:07:18;12.70;99.90
4759;DHT22;2393;50.560;12.636;2023-05-07T07:09:50;13.00;99.90
4759;DHT22;2393;50.560;12.636;2023-05-07T07:12:19;13.20;99.90
4759;DHT22;2393;50.560;12.636;2023-05-07T07:14:48;13.40;99.90
4759;DHT22;2393;50.560;12.636;2023-05-07T07:17:16;13.60;99.90
4759;DHT22;2393;50.560;12.636;2023-05-07T07:19:44;13.60;99.90
4759;DHT22;2393;50.560;12.636;2023-05-07T07:22:12;13.70;99.90
4759;DHT22;2393;50.560;12.636;2023-05-07T07:24:40;13.80;99.90
4759;DHT22;2393;50.560;12.636;2023-05-07T07:27:10;13.70;99.90
4759;DHT22;2393;50.560;12.636;2023-05-07T07:29:39;13.70;99.90
4759;DHT22;2393;50.560;12.636;2023-05-07T07:32:08;13.70;99.90
4759;DHT22;2393;50.560;12.636;2023-05-07T07:34:37;13.60;99.90
4759;DHT22;2393;50.560;12.636;2023-05-07T07:37:06;13.40;99.90
4759;DHT22;2393;50.560;12.636;2023-05-07T07:39:35;13.60;99.90
4759;DHT22;2393;50.560;12.636;2023-05-07T07:42:05;13.90;99.90
4759;DHT22;2393;50.560;12.636;2023-05-07T07:44:34;14.20;99.90
4759;DHT22;2393;50.560;12.636;2023-05-07T07:47:07;14.60;99.90
4759;DHT22;2393;50.560;12.636;2023-05-07T07:49:37;15.10;99.90
4759;DHT22;2393;50.560;12.636;2023-05-07T07:52:07;15.50;99.90
4759;DHT22;2393;50.560;12.636;2023-05-07T07:54:36;15.70;99.90
4759;DHT22;2393;50.560;12.636;2023-05-07T07:57:06;15.80;99.90
4759;DHT22;2393;50.560;12.636;2023-05-07T07:59:34;16.00;99.90
4759;DHT22;2393;50.560;12.636;2023-05-07T08:02:03;15.60;99.90
4759;DHT22;2393;50.560;12.636;2023-05-07T08:04:33;15.60;99.90
4759;DHT22;2393;50.560;12.636;2023-05-07T08:07:04;15.50;99.90
4759;DHT22;2393;50.560;12.636;2023-05-07T08:09:35;15.50;99.90
4759;DHT22;2393;50.560;12.636;2023-05-07T08:12:04;15.40;99.90
4759;DHT22;2393;50.560;12.636;2023-05-07T08:14:33;15.60;99.90
4759;DHT22;2393;50.560;12.636;2023-05-07T08:17:04;15.60;99.90
4759;DHT22;2393;50.560;12.636;2023-05-07T08:19:34;15.60;99.90
4759;DHT22;2393;50.560;12.636;2023-05-07T08:22:03;15.70;99.90
4759;DHT22;2393;50.560;12.636;2023-05-07T08:24:32;15.60;99.90
4759;DHT22;2393;50.560;12.636;2023-05-07T08:27:01;15.80;99.90
4759;DHT22;2393;50.560;12.636;2023-05-07T08:29:29;16.10;99.90
4759;DHT22;2393;50.560;12.636;2023-05-07T08:31:59;16.50;99.90
4759;DHT22;2393;50.560;12.636;2023-05-07T08:34:27;16.60;99.90
4759;DHT22;2393;50.560;12.636;2023-05-07T08:36:58;17.00;99.90
4759;DHT22;2393;50.560;12.636;2023-05-07T08:39:26;17.30;99.90
4759;DHT22;2393;50.560;12.636;2023-05-07T08:41:55;17.50;99.90
4759;DHT22;2393;50.560;12.636;2023-05-07T08:44:26;17.90;99.90
4759;DHT22;2393;50.560;12.636;2023-05-07T08:46:59;17.80;99.90
4759;DHT22;2393;50.560;12.636;2023-05-07T08:49:30;18.00;99.90
4759;DHT22;2393;50.560;12.636;2023-05-07T08:52:00;18.10;99.90
4759;DHT22;2393;50.560;12.636;2023-05-07T08:54:29;18.20;99.90
4759;DHT22;2393;50.560;12.636;2023-05-07T08:56:59;18.30;99.90
4759;DHT22;2393;50.560;12.636;2023-05-07T08:59:27;18.30;99.90
4759;DHT22;2393;50.560;12.636;2023-05-07T09:01:56;18.30;99.90
4759;DHT22;2393;50.560;12.636;2023-05-07T09:04:25;18.30;99.90
4759;DHT22;2393;50.560;12.636;2023-05-07T09:06:53;18.40;99.90
4759;DHT22;2393;50.560;12.636;2023-05-07T09:09:24;18.50;99.90
4759;DHT22;2393;50.560;12.636;2023-05-07T09:11:57;18.70;99.90
4759;DHT22;2393;50.560;12.636;2023-05-07T09:14:26;19.00;99.90
4759;DHT22;2393;50.560;12.636;2023-05-07T09:16:54;18.90;99.90
4759;DHT22;2393;50.560;12.636;2023-05-07T09:19:23;19.10;99.90
4759;DHT22;2393;50.560;12.636;2023-05-07T09:21:58;19.30;99.90
4759;DHT22;2393;50.560;12.636;2023-05-07T09:24:31;19.50;99.90
4759;DHT22;2393;50.560;12.636;2023-05-07T09:27:04;19.80;99.90
4759;DHT22;2393;50.560;12.636;2023-05-07T09:29:33;20.10;99.90
4759;DHT22;2393;50.560;12.636;2023-05-07T09:32:04;20.30;99.90
4759;DHT22;2393;50.560;12.636;2023-05-07T09:34:33;20.50;99.90
4759;DHT22;2393;50.560;12.636;2023-05-07T09:37:04;20.70;99.90
4759;DHT22;2393;50.560;12.636;2023-05-07T09:39:43;20.90;99.90
4759;DHT22;2393;50.560;12.636;2023-05-07T09:42:13;21.10;99.90
4759;DHT22;2393;50.560;12.636;2023-05-07T09:44:43;21.30;99.90
4759;DHT22;2393;50.560;12.636;2023-05-07T09:47:19;21.40;99.90
4759;DHT22;2393;50.560;12.636;2023-05-07T09:49:56;21.40;99.90
4759;DHT22;2393;50.560;12.636;2023-05-07T09:52:26;21.50;99.90
4759;DHT22;2393;50.560;12.636;2023-05-07T09:55:04;21.70;99.90
4759;DHT22;2393;50.560;12.636;2023-05-07T09:57:34;21.90;99.90
4759;DHT22;2393;50.560;12.636;2023-05-07T10:00:08;22.10;99.90
4759;DHT22;2393;50.560;12.636;2023-05-07T10:03:03;22.40;99.90
4759;DHT22;2393;50.560;12.636;2023-05-07T10:05:42;22.60;99.90
4759;DHT22;2393;50.560;12.636;2023-05-07T10:08:12;22.80;99.90
4759;DHT22;2393;50.560;12.636;2023-05-07T10:10:47;23.00;99.90
4759;DHT22;2393;50.560;12.636;2023-05-07T10:13:19;23.10;99.90
4759;DHT22;2393;50.560;12.636;2023-05-07T10:15:50;23.40;99.90
4759;DHT22;2393;50.560;12.636;2023-05-07T10:18:21;23.60;99.90
4759;DHT22;2393;50.560;12.636;2023-05-07T10:20:52;23.70;99.90
4759;DHT22;2393;50.560;12.636;2023-05-07T10:23:23;23.80;99.90
4759;DHT22;2393;50.560;12.636;2023-05-07T10:25:58;23.80;99.90
4759;DHT22;2393;50.560;12.636;2023-05-07T10:28:31;23.90;99.90
4759;DHT22;2393;50.560;12.636;2023-05-07T10:31:10;24.00;99.90
4759;DHT22;2393;50.560;12.636;2023-05-07T10:33:47;24.00;99.90
4759;DHT22;2393;50.560;12.636;2023-05-07T10:36:19;24.00;99.90
4759;DHT22;2393;50.560;12.636;2023-05-07T10:38:49;24.20;99.90
4759;DHT22;2393;50.560;12.636;2023-05-07T10:41:19;24.40;99.90
4759;DHT22;2393;50.560;12.636;2023-05-07T10:43:48;24.10;99.90
4759;DHT22;2393;50.560;12.636;2023-05-07T10:46:22;24.20;99.90
4759;DHT22;2393;50.560;12.636;2023-05-07T10:49:09;24.40;99.90
4759;DHT22;2393;50.560;12.636;2023-05-07T10:52:14;24.50;99.90
4759;DHT22;2393;50.560;12.636;2023-05-07T10:55:22;24.70;99.90
4759;DHT22;2393;50.560;12.636;2023-05-07T11:01:07;24.90;99.90
4759;DHT22;2393;50.560;12.636;2023-05-07T11:04:12;25.10;99.90
4759;DHT22;2393;50.560;12.636;2023-05-07T11:09:59;25.20;98.80
4759;DHT22;2393;50.560;12.636;2023-05-07T11:12:52;25.20;99.80
4759;DHT22;2393;50.560;12.636;2023-05-07T11:15:42;25.20;99.70
4759;DHT22;2393;50.560;12.636;2023-05-07T11:18:49;25.20;99.80
4759;DHT22;2393;50.560;12.636;2023-05-07T11:21:34;25.40;99.90
4759;DHT22;2393;50.560;12.636;2023-05-07T11:24:10;25.40;99.30
4759;DHT22;2393;50.560;12.636;2023-05-07T11:27:02;25.30;99.30
4759;DHT22;2393;50.560;12.636;2023-05-07T11:29:31;25.00;98.20
4759;DHT22;2393;50.560;12.636;2023-05-07T11:32:06;24.80;98.00
4759;DHT22;2393;50.560;12.636;2023-05-07T11:34:47;24.70;98.40
4759;DHT22;2393;50.560;12.636;2023-05-07T11:37:22;24.30;97.80
4759;DHT22;2393;50.560;12.636;2023-05-07T11:40:04;24.10;98.10
4759;DHT22;2393;50.560;12.636;2023-05-07T11:42:35;23.90;98.80
4759;DHT22;2393;50.560;12.636;2023-05-07T11:45:07;23.40;98.90
4759;DHT22;2393;50.560;12.636;2023-05-07T11:47:36;23.00;99.70
4759;DHT22;2393;50.560;12.636;2023-05-07T11:50:10;22.90;99.90
4759;DHT22;2393;50.560;12.636;2023-05-07T11:52:39;23.00;99.90
4759;DHT22;2393;50.560;12.636;2023-05-07T11:55:08;23.00;99.90
4759;DHT22;2393;50.560;12.636;2023-05-07T11:57:39;23.00;99.90
4759;DHT22;2393;50.560;12.636;2023-05-07T12:00:10;23.10;99.90
4759;DHT22;2393;50.560;12.636;2023-05-07T12:02:39;23.10;99.90
4759;DHT22;2393;50.560;12.636;2023-05-07T12:05:08;23.00;99.90
4759;DHT22;2393;50.560;12.636;2023-05-07T12:07:41;22.80;99.90
4759;DHT22;2393;50.560;12.636;2023-05-07T12:10:11;22.70;99.90
4759;DHT22;2393;50.560;12.636;2023-05-07T12:12:39;22.80;99.90
4759;DHT22;2393;50.560;12.636;2023-05-07T12:15:09;22.90;99.90
4759;DHT22;2393;50.560;12.636;2023-05-07T12:17:38;23.00;99.90
4759;DHT22;2393;50.560;12.636;2023-05-07T12:20:09;23.20;99.90
4759;DHT22;2393;50.560;12.636;2023-05-07T12:22:38;23.40;99.90
4759;DHT22;2393;50.560;12.636;2023-05-07T12:25:06;23.50;99.90
4759;DHT22;2393;50.560;12.636;2023-05-07T12:27:40;23.60;99.90
4759;DHT22;2393;50.560;12.636;2023-05-07T12:30:12;23.60;99.50
4759;DHT22;2393;50.560;12.636;2023-05-07T12:32:42;23.60;99.70
4759;DHT22;2393;50.560;12.636;2023-05-07T12:35:14;23.50;99.40
4759;DHT22;2393;50.560;12.636;2023-05-07T12:37:42;23.40;99.30
4759;DHT22;2393;50.560;12.636;2023-05-07T12:40:11;23.20;99.60
4759;DHT22;2393;50.560;12.636;2023-05-07T12:42:40;23.10;99.70
4759;DHT22;2393;50.560;12.636;2023-05-07T12:45:10;23.00;99.30
4759;DHT22;2393;50.560;12.636;2023-05-07T12:47:38;22.80;99.90
4759;DHT22;2393;50.560;12.636;2023-05-07T12:50:07;22.70;99.90
4759;DHT22;2393;50.560;12.636;2023-05-07T12:52:36;22.60;99.90
4759;DHT22;2393;50.560;12.636;2023-05-07T12:55:05;22.40;99.90
4759;DHT22;2393;50.560;12.636;2023-05-07T12:57:38;22.20;99.90
4759;DHT22;2393;50.560;12.636;2023-05-07T13:00:07;22.20;99.90
4759;DHT22;2393;50.560;12.636;2023-05-07T13:02:38;22.10;99.90
4759;DHT22;2393;50.560;12.636;2023-05-07T13:05:08;22.00;99.90
4759;DHT22;2393;50.560;12.636;2023-05-07T13:07:37;21.90;99.90
4759;DHT22;2393;50.560;12.636;2023-05-07T13:10:07;21.90;99.90
4759;DHT22;2393;50.560;12.636;2023-05-07T13:12:35;21.90;99.90
4759;DHT22;2393;50.560;12.636;2023-05-07T13:15:04;22.00;99.90
4759;DHT22;2393;50.560;12.636;2023-05-07T13:17:33;22.00;99.90
4759;DHT22;2393;50.560;12.636;2023-05-07T13:20:01;22.10;99.90
4759;DHT22;2393;50.560;12.636;2023-05-07T13:22:31;22.10;99.90
4759;DHT22;2393;50.560;12.636;2023-05-07T13:25:01;22.10;99.90
4759;DHT22;2393;50.560;12.636;2023-05-07T13:27:29;22.10;99.90
4759;DHT22;2393;50.560;12.636;2023-05-07T13:29:58;22.10;99.90
4759;DHT22;2393;50.560;12.636;2023-05-07T13:32:26;22.00;99.90
4759;DHT22;2393;50.560;12.636;2023-05-07T13:34:54;22.00;99.90
4759;DHT22;2393;50.560;12.636;2023-05-07T13:37:22;21.90;99.90
4759;DHT22;2393;50.560;12.636;2023-05-07T13:39:50;21.80;99.90
4759;DHT22;2393;50.560;12.636;2023-05-07T13:42:20;21.80;99.90
4759;DHT22;2393;50.560;12.636;2023-05-07T13:44:48;21.70;99.90
4759;DHT22;2393;50.560;12.636;2023-05-07T13:47:16;21.60;99.90
4759;DHT22;2393;50.560;12.636;2023-05-07T13:49:44;21.50;99.90
4759;DHT22;2393;50.560;12.636;2023-05-07T13:52:12;21.30;99.90
4759;DHT22;2393;50.560;12.636;2023-05-07T13:54:40;21.30;99.90
4759;DHT22;2393;50.560;12.636;2023-05-07T13:57:08;21.50;99.90
4759;DHT22;2393;50.560;12.636;2023-05-07T13:59:38;21.50;99.90
4759;DHT22;2393;50.560;12.636;2023-05-07T14:02:06;21.50;99.90
4759;DHT22;2393;50.560;12.636;2023-05-07T14:04:36;21.60;99.90
4759;DHT22;2393;50.560;12.636;2023-05-07T14:07:05;21.80;99.90
4759;DHT22;2393;50.560;12.636;2023-05-07T14:09:33;21.90;99.90
4759;DHT22;2393;50.560;12.636;2023-05-07T14:12:01;22.10;99.90
4759;DHT22;2393;50.560;12.636;2023-05-07T14:14:29;22.20;99.90
4759;DHT22;2393;50.560;12.636;2023-05-07T14:16:58;22.40;99.90
4759;DHT22;2393;50.560;12.636;2023-05-07T14:19:27;22.60;99.90
4759;DHT22;2393;50.560;12.636;2023-05-07T14:21:56;22.80;99.90
4759;DHT22;2393;50.560;12.636;2023-05-07T14:24:25;22.90;99.90
4759;DHT22;2393;50.560;12.636;2023-05-07T14:27:04;23.00;99.90
4759;DHT22;2393;50.560;12.636;2023-05-07T14:29:32;22.50;99.90
4759;DHT22;2393;50.560;12.636;2023-05-07T14:32:04;22.10;99.90
4759;DHT22;2393;50.560;12.636;2023-05-07T14:34:32;21.80;99.90
4759;DHT22;2393;50.560;12.636;2023-05-07T14:37:00;21.90;99.90
4759;DHT22;2393;50.560;12.636;2023-05-07T14:39:28;21.80;99.90
4759;DHT22;2393;50.560;12.636;2023-05-07T14:41:57;21.70;99.90
4759;DHT22;2393;50.560;12.636;2023-05-07T14:44:25;21.70;99.90
4759;DHT22;2393;50.560;12.636;2023-05-07T14:46:53;21.60;99.90
4759;DHT22;2393;50.560;12.636;2023-05-07T14:49:23;21.70;99.90
4759;DHT22;2393;50.560;12.636;2023-05-07T14:51:51;21.90;99.90
4759;DHT22;2393;50.560;12.636;2023-05-07T14:54:21;22.00;99.90
4759;DHT22;2393;50.560;12.636;2023-05-07T14:56:49;22.00;99.90
4759;DHT22;2393;50.560;12.636;2023-05-07T14:59:18;22.10;99.90
4759;DHT22;2393;50.560;12.636;2023-05-07T15:01:47;22.20;99.90
4759;DHT22;2393;50.560;12.636;2023-05-07T15:04:16;22.20;99.90
4759;DHT22;2393;50.560;12.636;2023-05-07T15:06:45;22.30;99.90
4759;DHT22;2393;50.560;12.636;2023-05-07T15:09:13;22.40;99.90
4759;DHT22;2393;50.560;12.636;2023-05-07T15:11:41;21.90;99.60
4759;DHT22;2393;50.560;12.636;2023-05-07T15:14:10;21.40;99.90
4759;DHT22;2393;50.560;12.636;2023-05-07T15:16:38;21.50;99.90
4759;DHT22;2393;50.560;12.636;2023-05-07T15:19:06;21.50;99.90
4759;DHT22;2393;50.560;12.636;2023-05-07T15:21:34;21.60;99.90
4759;DHT22;2393;50.560;12.636;2023-05-07T15:24:05;21.50;99.90
4759;DHT22;2393;50.560;12.636;2023-05-07T15:26:36;21.50;99.90
4759;DHT22;2393;50.560;12.636;2023-05-07T15:29:04;21.40;99.90
4759;DHT22;2393;50.560;12.636;2023-05-07T15:31:37;21.40;99.90
4759;DHT22;2393;50.560;12.636;2023-05-07T15:34:06;21.20;99.90
4759;DHT22;2393;50.560;12.636;2023-05-07T15:36:34;21.10;99.90
4759;DHT22;2393;50.560;12.636;2023-05-07T15:39:04;21.00;99.90
4759;DHT22;2393;50.560;12.636;2023-05-07T15:41:32;20.70;99.90
4759;DHT22;2393;50.560;12.636;2023-05-07T15:44:00;20.50;99.90
4759;DHT22;2393;50.560;12.636;2023-05-07T15:46:28;20.40;99.90
4759;DHT22;2393;50.560;12.636;2023-05-07T15:48:56;20.10;99.90
4759;DHT22;2393;50.560;12.636;2023-05-07T15:51:25;19.70;99.90
4759;DHT22;2393;50.560;12.636;2023-05-07T15:53:53;19.30;99.90
4759;DHT22;2393;50.560;12.636;2023-05-07T15:56:23;19.00;99.90
4759;DHT22;2393;50.560;12.636;2023-05-07T15:58:51;18.70;99.90
4759;DHT22;2393;50.560;12.636;2023-05-07T16:01:20;18.30;99.90
4759;DHT22;2393;50.560;12.636;2023-05-07T16:03:51;17.80;99.90
4759;DHT22;2393;50.560;12.636;2023-05-07T16:06:19;17.60;99.90
4759;DHT22;2393;50.560;12.636;2023-05-07T16:08:47;17.60;99.90
4759;DHT22;2393;50.560;12.636;2023-05-07T16:11:15;17.50;99.90
4759;DHT22;2393;50.560;12.636;2023-05-07T16:13:47;17.20;99.90
4759;DHT22;2393;50.560;12.636;2023-05-07T16:16:17;17.20;99.90
4759;DHT22;2393;50.560;12.636;2023-05-07T16:18:46;17.10;99.90
4759;DHT22;2393;50.560;12.636;2023-05-07T16:21:14;16.90;99.90
4759;DHT22;2393;50.560;12.636;2023-05-07T16:23:42;16.60;99.90